sensor_id;sensor_type;location;lat;lon;timestamp;P1;durP1;ratioP1;P2;durP2;ratioP2
12567;SDS011;6349;50.904;6.136;2022-11-28T00:01:42;3.07;;;2.33;;
12567;SDS011;6349;50.904;6.136;2022-11-28T00:03:44;2.57;;;2.33;;
12567;SDS011;6349;50.904;6.136;2022-11-28T00:05:45;2.40;;;2.20;;
12567;SDS011;6349;50.904;6.136;2022-11-28T00:07:45;2.57;;;2.17;;
12567;SDS011;6349;50.904;6.136;2022-11-28T00:09:46;2.30;;;2.10;;
12567;SDS011;6349;50.904;6.136;2022-11-28T00:11:47;2.57;;;2.27;;
12567;SDS011;6349;50.904;6.136;2022-11-28T00:13:48;2.80;;;2.27;;
12567;SDS011;6349;50.904;6.136;2022-11-28T00:15:57;2.73;;;2.50;;
12567;SDS011;6349;50.904;6.136;2022-11-28T00:17:59;2.90;;;2.60;;
12567;SDS011;6349;50.904;6.136;2022-11-28T00:19:59;4.07;;;2.90;;
12567;SDS011;6349;50.904;6.136;2022-11-28T00:22:00;2.93;;;2.63;;
12567;SDS011;6349;50.904;6.136;2022-11-28T00:24:01;2.87;;;2.50;;
12567;SDS011;6349;50.904;6.136;2022-11-28T00:26:03;2.57;;;2.37;;
12567;SDS011;6349;50.904;6.136;2022-11-28T00:28:06;3.13;;;2.60;;
12567;SDS011;6349;50.904;6.136;2022-11-28T00:30:07;2.67;;;2.30;;
12567;SDS011;6349;50.904;6.136;2022-11-28T00:32:08;3.03;;;2.60;;
12567;SDS011;6349;50.904;6.136;2022-11-28T00:34:09;2.80;;;2.60;;
12567;SDS011;6349;50.904;6.136;2022-11-28T00:36:12;3.07;;;2.50;;
12567;SDS011;6349;50.904;6.136;2022-11-28T00:38:12;3.33;;;2.53;;
12567;SDS011;6349;50.904;6.136;2022-11-28T00:40:13;2.83;;;2.50;;
12567;SDS011;6349;50.904;6.136;2022-11-28T00:42:14;3.83;;;2.67;;
12567;SDS011;6349;50.904;6.136;2022-11-28T00:44:15;3.83;;;2.57;;
12567;SDS011;6349;50.904;6.136;2022-11-28T00:46:16;2.80;;;2.40;;
12567;SDS011;6349;50.904;6.136;2022-11-28T00:48:18;2.60;;;2.37;;
12567;SDS011;6349;50.904;6.136;2022-11-28T00:50:19;3.30;;;2.50;;
12567;SDS011;6349;50.904;6.136;2022-11-28T00:52:19;2.53;;;2.33;;
12567;SDS011;6349;50.904;6.136;2022-11-28T00:54:20;3.00;;;2.53;;
12567;SDS011;6349;50.904;6.136;2022-11-28T00:56:22;2.60;;;2.40;;
12567;SDS011;6349;50.904;6.136;2022-11-28T00:58:25;2.00;;;1.70;;
12567;SDS011;6349;50.904;6.136;2022-11-28T01:00:25;2.07;;;1.80;;
12567;SDS011;6349;50.904;6.136;2022-11-28T01:02:26;2.07;;;1.87;;
12567;SDS011;6349;50.904;6.136;2022-11-28T01:04:27;2.27;;;1.77;;
12567;SDS011;6349;50.904;6.136;2022-11-28T01:06:30;2.50;;;2.10;;
12567;SDS011;6349;50.904;6.136;2022-11-28T01:08:33;1.73;;;1.63;;
12567;SDS011;6349;50.904;6.136;2022-11-28T01:10:37;2.20;;;1.97;;
12567;SDS011;6349;50.904;6.136;2022-11-28T01:12:41;1.70;;;1.60;;
12567;SDS011;6349;50.904;6.136;2022-11-28T01:14:41;2.13;;;1.93;;
12567;SDS011;6349;50.904;6.136;2022-11-28T01:16:42;2.13;;;1.93;;
12567;SDS011;6349;50.904;6.136;2022-11-28T01:18:42;2.23;;;1.70;;
12567;SDS011;6349;50.904;6.136;2022-11-28T01:20:43;1.97;;;1.77;;
12567;SDS011;6349;50.904;6.136;2022-11-28T01:22:43;2.00;;;1.70;;
12567;SDS011;6349;50.904;6.136;2022-11-28T01:24:44;2.10;;;1.80;;
12567;SDS011;6349;50.904;6.136;2022-11-28T01:26:45;1.80;;;1.70;;
12567;SDS011;6349;50.904;6.136;2022-11-28T01:28:45;1.90;;;1.80;;
12567;SDS011;6349;50.904;6.136;2022-11-28T01:30:46;1.90;;;1.70;;
12567;SDS011;6349;50.904;6.136;2022-11-28T01:32:47;1.73;;;1.63;;
12567;SDS011;6349;50.904;6.136;2022-11-28T01:34:48;2.20;;;1.70;;
12567;SDS011;6349;50.904;6.136;2022-11-28T01:36:48;1.90;;;1.70;;
12567;SDS011;6349;50.904;6.136;2022-11-28T01:38:49;2.27;;;1.80;;
12567;SDS011;6349;50.904;6.136;2022-11-28T01:40:50;2.17;;;1.80;;
12567;SDS011;6349;50.904;6.136;2022-11-28T01:42:51;2.20;;;1.90;;
12567;SDS011;6349;50.904;6.136;2022-11-28T01:47:03;2.00;;;1.80;;
12567;SDS011;6349;50.904;6.136;2022-11-28T01:49:06;2.03;;;1.73;;
12567;SDS011;6349;50.904;6.136;2022-11-28T01:51:10;2.03;;;1.80;;
12567;SDS011;6349;50.904;6.136;2022-11-28T01:53:11;2.10;;;1.90;;
12567;SDS011;6349;50.904;6.136;2022-11-28T01:55:12;1.93;;;1.83;;
12567;SDS011;6349;50.904;6.136;2022-11-28T01:57:16;2.10;;;1.90;;
12567;SDS011;6349;50.904;6.136;2022-11-28T01:59:19;1.60;;;1.47;;
12567;SDS011;6349;50.904;6.136;2022-11-28T02:01:25;1.70;;;1.60;;
12567;SDS011;6349;50.904;6.136;2022-11-28T02:03:28;2.60;;;1.90;;
12567;SDS011;6349;50.904;6.136;2022-11-28T02:05:33;1.70;;;1.60;;
12567;SDS011;6349;50.904;6.136;2022-11-28T02:07:35;3.20;;;1.73;;
12567;SDS011;6349;50.904;6.136;2022-11-28T02:09:37;2.03;;;1.70;;
12567;SDS011;6349;50.904;6.136;2022-11-28T02:11:41;2.80;;;1.60;;
12567;SDS011;6349;50.904;6.136;2022-11-28T02:18:58;4.23;;;3.47;;
12567;SDS011;6349;50.904;6.136;2022-11-28T02:24:00;1.80;;;1.57;;
12567;SDS011;6349;50.904;6.136;2022-11-28T02:28:56;1.70;;;1.60;;
12567;SDS011;6349;50.904;6.136;2022-11-28T02:33:48;2.20;;;1.70;;
12567;SDS011;6349;50.904;6.136;2022-11-28T02:35:58;1.40;;;1.30;;
12567;SDS011;6349;50.904;6.136;2022-11-28T02:38:21;1.60;;;1.50;;
12567;SDS011;6349;50.904;6.136;2022-11-28T02:43:09;2.00;;;1.30;;
12567;SDS011;6349;50.904;6.136;2022-11-28T02:45:51;2.17;;;1.40;;
12567;SDS011;6349;50.904;6.136;2022-11-28T02:48:12;1.90;;;1.40;;
12567;SDS011;6349;50.904;6.136;2022-11-28T02:50:24;1.20;;;1.10;;
12567;SDS011;6349;50.904;6.136;2022-11-28T02:52:32;1.57;;;1.47;;
12567;SDS011;6349;50.904;6.136;2022-11-28T02:54:38;1.63;;;1.40;;
12567;SDS011;6349;50.904;6.136;2022-11-28T02:56:48;1.60;;;1.30;;
12567;SDS011;6349;50.904;6.136;2022-11-28T02:58:49;1.37;;;1.27;;
12567;SDS011;6349;50.904;6.136;2022-11-28T03:00:50;1.40;;;1.30;;
12567;SDS011;6349;50.904;6.136;2022-11-28T03:02:57;1.53;;;1.30;;
12567;SDS011;6349;50.904;6.136;2022-11-28T03:05:24;1.40;;;1.30;;
12567;SDS011;6349;50.904;6.136;2022-11-28T03:10:24;1.53;;;1.30;;
12567;SDS011;6349;50.904;6.136;2022-11-28T03:13:03;2.03;;;1.20;;
12567;SDS011;6349;50.904;6.136;2022-11-28T03:15:27;1.30;;;1.20;;
12567;SDS011;6349;50.904;6.136;2022-11-28T03:17:39;2.07;;;1.37;;
12567;SDS011;6349;50.904;6.136;2022-11-28T03:20:20;1.73;;;1.20;;
12567;SDS011;6349;50.904;6.136;2022-11-28T03:22:31;2.40;;;1.27;;
12567;SDS011;6349;50.904;6.136;2022-11-28T03:24:55;1.50;;;1.40;;
12567;SDS011;6349;50.904;6.136;2022-11-28T03:27:06;1.87;;;1.60;;
12567;SDS011;6349;50.904;6.136;2022-11-28T03:29:24;1.67;;;1.37;;
12567;SDS011;6349;50.904;6.136;2022-11-28T03:31:41;1.47;;;1.30;;
12567;SDS011;6349;50.904;6.136;2022-11-28T03:33:49;1.53;;;1.30;;
12567;SDS011;6349;50.904;6.136;2022-11-28T03:35:54;1.90;;;1.57;;
12567;SDS011;6349;50.904;6.136;2022-11-28T03:38:00;1.90;;;1.67;;
12567;SDS011;6349;50.904;6.136;2022-11-28T03:40:06;2.10;;;1.77;;
12567;SDS011;6349;50.904;6.136;2022-11-28T03:42:12;1.63;;;1.53;;
12567;SDS011;6349;50.904;6.136;2022-11-28T03:44:20;2.10;;;1.70;;
12567;SDS011;6349;50.904;6.136;2022-11-28T03:46:28;5.87;;;2.03;;
12567;SDS011;6349;50.904;6.136;2022-11-28T03:48:34;2.00;;;1.80;;
12567;SDS011;6349;50.904;6.136;2022-11-28T03:50:42;1.93;;;1.80;;
12567;SDS011;6349;50.904;6.136;2022-11-28T03:52:49;3.07;;;2.03;;
12567;SDS011;6349;50.904;6.136;2022-11-28T03:54:56;6.60;;;2.00;;
12567;SDS011;6349;50.904;6.136;2022-11-28T03:57:05;6.30;;;2.40;;
12567;SDS011;6349;50.904;6.136;2022-11-28T03:59:14;4.80;;;2.20;;
12567;SDS011;6349;50.904;6.136;2022-11-28T04:01:28;2.53;;;2.10;;
12567;SDS011;6349;50.904;6.136;2022-11-28T04:03:53;3.67;;;2.30;;
12567;SDS011;6349;50.904;6.136;2022-11-28T04:06:18;3.23;;;2.50;;
12567;SDS011;6349;50.904;6.136;2022-11-28T04:08:26;3.27;;;2.70;;
12567;SDS011;6349;50.904;6.136;2022-11-28T04:10:36;2.73;;;2.37;;
12567;SDS011;6349;50.904;6.136;2022-11-28T04:15:30;2.53;;;2.33;;
12567;SDS011;6349;50.904;6.136;2022-11-28T04:20:09;2.83;;;2.30;;
12567;SDS011;6349;50.904;6.136;2022-11-28T04:22:17;2.60;;;2.30;;
12567;SDS011;6349;50.904;6.136;2022-11-28T04:24:25;2.40;;;2.20;;
12567;SDS011;6349;50.904;6.136;2022-11-28T04:26:32;2.60;;;2.27;;
12567;SDS011;6349;50.904;6.136;2022-11-28T04:28:35;2.50;;;2.30;;
12567;SDS011;6349;50.904;6.136;2022-11-28T04:30:38;2.80;;;2.40;;
12567;SDS011;6349;50.904;6.136;2022-11-28T04:32:45;2.60;;;2.13;;
12567;SDS011;6349;50.904;6.136;2022-11-28T04:34:52;2.70;;;2.50;;
12567;SDS011;6349;50.904;6.136;2022-11-28T04:36:57;2.77;;;2.57;;
12567;SDS011;6349;50.904;6.136;2022-11-28T04:38:59;2.50;;;2.23;;
12567;SDS011;6349;50.904;6.136;2022-11-28T04:41:04;2.67;;;2.47;;
12567;SDS011;6349;50.904;6.136;2022-11-28T04:43:11;2.60;;;2.40;;
12567;SDS011;6349;50.904;6.136;2022-11-28T04:45:20;2.50;;;2.30;;
12567;SDS011;6349;50.904;6.136;2022-11-28T04:47:28;3.50;;;2.50;;
12567;SDS011;6349;50.904;6.136;2022-11-28T04:49:29;4.47;;;2.60;;
12567;SDS011;6349;50.904;6.136;2022-11-28T04:51:35;3.37;;;2.60;;
12567;SDS011;6349;50.904;6.136;2022-11-28T04:53:44;4.90;;;3.30;;
12567;SDS011;6349;50.904;6.136;2022-11-28T04:56:07;4.10;;;2.80;;
12567;SDS011;6349;50.904;6.136;2022-11-28T04:58:17;2.77;;;2.50;;
12567;SDS011;6349;50.904;6.136;2022-11-28T05:00:23;4.03;;;2.90;;
12567;SDS011;6349;50.904;6.136;2022-11-28T05:02:26;2.73;;;2.50;;
12567;SDS011;6349;50.904;6.136;2022-11-28T05:04:27;3.63;;;2.70;;
12567;SDS011;6349;50.904;6.136;2022-11-28T05:06:29;3.07;;;2.70;;
12567;SDS011;6349;50.904;6.136;2022-11-28T05:08:32;2.40;;;2.20;;
12567;SDS011;6349;50.904;6.136;2022-11-28T05:10:33;2.70;;;2.50;;
12567;SDS011;6349;50.904;6.136;2022-11-28T05:12:34;3.90;;;2.60;;
12567;SDS011;6349;50.904;6.136;2022-11-28T05:14:34;3.30;;;2.70;;
12567;SDS011;6349;50.904;6.136;2022-11-28T05:16:35;3.17;;;2.70;;
12567;SDS011;6349;50.904;6.136;2022-11-28T05:18:35;3.03;;;2.73;;
12567;SDS011;6349;50.904;6.136;2022-11-28T05:20:36;3.50;;;2.67;;
12567;SDS011;6349;50.904;6.136;2022-11-28T05:22:37;3.10;;;2.70;;
12567;SDS011;6349;50.904;6.136;2022-11-28T05:24:38;2.90;;;2.60;;
12567;SDS011;6349;50.904;6.136;2022-11-28T05:26:39;2.50;;;2.30;;
12567;SDS011;6349;50.904;6.136;2022-11-28T05:28:41;2.47;;;2.27;;
12567;SDS011;6349;50.904;6.136;2022-11-28T05:30:43;3.47;;;2.50;;
12567;SDS011;6349;50.904;6.136;2022-11-28T05:32:44;3.20;;;2.90;;
12567;SDS011;6349;50.904;6.136;2022-11-28T05:34:45;3.00;;;2.70;;
12567;SDS011;6349;50.904;6.136;2022-11-28T05:36:45;3.03;;;2.73;;
12567;SDS011;6349;50.904;6.136;2022-11-28T05:38:46;3.20;;;2.90;;
12567;SDS011;6349;50.904;6.136;2022-11-28T05:40:47;2.80;;;2.60;;
12567;SDS011;6349;50.904;6.136;2022-11-28T05:42:48;3.20;;;2.90;;
12567;SDS011;6349;50.904;6.136;2022-11-28T05:44:49;3.23;;;2.50;;
12567;SDS011;6349;50.904;6.136;2022-11-28T05:46:49;3.20;;;2.90;;
12567;SDS011;6349;50.904;6.136;2022-11-28T05:48:50;3.10;;;2.80;;
12567;SDS011;6349;50.904;6.136;2022-11-28T05:50:51;4.43;;;3.00;;
12567;SDS011;6349;50.904;6.136;2022-11-28T05:52:51;2.93;;;2.63;;
12567;SDS011;6349;50.904;6.136;2022-11-28T05:54:52;3.20;;;2.90;;
12567;SDS011;6349;50.904;6.136;2022-11-28T05:56:52;2.93;;;2.63;;
12567;SDS011;6349;50.904;6.136;2022-11-28T05:58:53;3.50;;;2.70;;
12567;SDS011;6349;50.904;6.136;2022-11-28T06:00:54;3.13;;;2.60;;
12567;SDS011;6349;50.904;6.136;2022-11-28T06:02:54;3.20;;;2.53;;
12567;SDS011;6349;50.904;6.136;2022-11-28T06:04:55;3.10;;;2.80;;
12567;SDS011;6349;50.904;6.136;2022-11-28T06:06:56;3.13;;;2.60;;
12567;SDS011;6349;50.904;6.136;2022-11-28T06:08:57;2.90;;;2.60;;
12567;SDS011;6349;50.904;6.136;2022-11-28T06:10:58;3.33;;;2.53;;
12567;SDS011;6349;50.904;6.136;2022-11-28T06:12:59;2.83;;;2.57;;
12567;SDS011;6349;50.904;6.136;2022-11-28T06:15:02;3.23;;;2.80;;
12567;SDS011;6349;50.904;6.136;2022-11-28T06:17:03;3.30;;;2.63;;
12567;SDS011;6349;50.904;6.136;2022-11-28T06:19:04;2.90;;;2.63;;
12567;SDS011;6349;50.904;6.136;2022-11-28T06:21:05;3.00;;;2.70;;
12567;SDS011;6349;50.904;6.136;2022-11-28T06:23:07;3.07;;;2.77;;
12567;SDS011;6349;50.904;6.136;2022-11-28T06:25:08;4.10;;;3.40;;
12567;SDS011;6349;50.904;6.136;2022-11-28T06:27:09;3.23;;;2.80;;
12567;SDS011;6349;50.904;6.136;2022-11-28T06:29:09;3.30;;;3.00;;
12567;SDS011;6349;50.904;6.136;2022-11-28T06:31:11;3.47;;;3.17;;
12567;SDS011;6349;50.904;6.136;2022-11-28T06:33:13;3.33;;;3.03;;
12567;SDS011;6349;50.904;6.136;2022-11-28T06:35:13;3.87;;;3.47;;
12567;SDS011;6349;50.904;6.136;2022-11-28T06:37:14;3.50;;;3.10;;
12567;SDS011;6349;50.904;6.136;2022-11-28T06:39:15;3.53;;;3.00;;
12567;SDS011;6349;50.904;6.136;2022-11-28T06:41:17;3.40;;;2.90;;
12567;SDS011;6349;50.904;6.136;2022-11-28T06:43:19;3.73;;;2.80;;
12567;SDS011;6349;50.904;6.136;2022-11-28T06:45:19;3.30;;;3.00;;
12567;SDS011;6349;50.904;6.136;2022-11-28T06:47:20;2.97;;;2.70;;
12567;SDS011;6349;50.904;6.136;2022-11-28T06:49:21;3.23;;;2.93;;
12567;SDS011;6349;50.904;6.136;2022-11-28T06:51:21;3.33;;;2.70;;
12567;SDS011;6349;50.904;6.136;2022-11-28T06:53:22;2.90;;;2.70;;
12567;SDS011;6349;50.904;6.136;2022-11-28T06:55:22;3.83;;;2.90;;
12567;SDS011;6349;50.904;6.136;2022-11-28T06:57:23;3.00;;;2.70;;
12567;SDS011;6349;50.904;6.136;2022-11-28T06:59:24;3.67;;;3.03;;
12567;SDS011;6349;50.904;6.136;2022-11-28T07:01:25;2.93;;;2.70;;
12567;SDS011;6349;50.904;6.136;2022-11-28T07:03:27;2.70;;;2.50;;
12567;SDS011;6349;50.904;6.136;2022-11-28T07:05:28;3.67;;;2.73;;
12567;SDS011;6349;50.904;6.136;2022-11-28T07:07:30;3.20;;;2.90;;
12567;SDS011;6349;50.904;6.136;2022-11-28T07:09:30;2.97;;;2.73;;
12567;SDS011;6349;50.904;6.136;2022-11-28T07:11:31;3.23;;;2.70;;
12567;SDS011;6349;50.904;6.136;2022-11-28T07:13:32;3.43;;;2.97;;
12567;SDS011;6349;50.904;6.136;2022-11-28T07:15:32;4.10;;;2.87;;
12567;SDS011;6349;50.904;6.136;2022-11-28T07:17:33;3.47;;;3.17;;
12567;SDS011;6349;50.904;6.136;2022-11-28T07:19:34;3.00;;;2.77;;
12567;SDS011;6349;50.904;6.136;2022-11-28T07:21:35;3.10;;;2.70;;
12567;SDS011;6349;50.904;6.136;2022-11-28T07:23:35;3.40;;;2.80;;
12567;SDS011;6349;50.904;6.136;2022-11-28T07:25:36;4.00;;;3.00;;
12567;SDS011;6349;50.904;6.136;2022-11-28T07:27:36;4.40;;;2.83;;
12567;SDS011;6349;50.904;6.136;2022-11-28T07:29:37;5.40;;;3.00;;
12567;SDS011;6349;50.904;6.136;2022-11-28T07:31:38;3.10;;;2.80;;
12567;SDS011;6349;50.904;6.136;2022-11-28T07:33:39;2.80;;;2.60;;
12567;SDS011;6349;50.904;6.136;2022-11-28T07:35:41;3.13;;;2.83;;
12567;SDS011;6349;50.904;6.136;2022-11-28T07:37:41;3.90;;;2.80;;
12567;SDS011;6349;50.904;6.136;2022-11-28T07:39:42;3.13;;;2.77;;
12567;SDS011;6349;50.904;6.136;2022-11-28T07:41:43;3.20;;;2.90;;
12567;SDS011;6349;50.904;6.136;2022-11-28T07:43:45;3.60;;;2.83;;
12567;SDS011;6349;50.904;6.136;2022-11-28T07:45:46;3.50;;;2.67;;
12567;SDS011;6349;50.904;6.136;2022-11-28T07:47:47;3.13;;;2.83;;
12567;SDS011;6349;50.904;6.136;2022-11-28T07:49:48;2.80;;;2.60;;
12567;SDS011;6349;50.904;6.136;2022-11-28T07:51:49;3.53;;;2.77;;
12567;SDS011;6349;50.904;6.136;2022-11-28T07:53:50;3.40;;;3.00;;
12567;SDS011;6349;50.904;6.136;2022-11-28T07:55:50;4.80;;;3.00;;
12567;SDS011;6349;50.904;6.136;2022-11-28T07:57:51;4.17;;;2.70;;
12567;SDS011;6349;50.904;6.136;2022-11-28T07:59:51;3.10;;;2.77;;
12567;SDS011;6349;50.904;6.136;2022-11-28T08:01:52;2.73;;;2.53;;
12567;SDS011;6349;50.904;6.136;2022-11-28T08:03:53;2.80;;;2.50;;
12567;SDS011;6349;50.904;6.136;2022-11-28T08:05:58;3.30;;;3.00;;
12567;SDS011;6349;50.904;6.136;2022-11-28T08:07:59;3.87;;;3.00;;
12567;SDS011;6349;50.904;6.136;2022-11-28T08:10:00;3.23;;;2.70;;
12567;SDS011;6349;50.904;6.136;2022-11-28T08:12:01;3.43;;;2.70;;
12567;SDS011;6349;50.904;6.136;2022-11-28T08:14:01;2.63;;;2.43;;
12567;SDS011;6349;50.904;6.136;2022-11-28T08:16:03;2.77;;;2.20;;
12567;SDS011;6349;50.904;6.136;2022-11-28T08:18:06;3.20;;;2.40;;
12567;SDS011;6349;50.904;6.136;2022-11-28T08:20:07;3.00;;;2.50;;
12567;SDS011;6349;50.904;6.136;2022-11-28T08:22:08;2.83;;;2.50;;
12567;SDS011;6349;50.904;6.136;2022-11-28T08:24:09;3.70;;;2.73;;
12567;SDS011;6349;50.904;6.136;2022-11-28T08:26:11;4.27;;;2.80;;
12567;SDS011;6349;50.904;6.136;2022-11-28T08:28:13;3.20;;;2.30;;
12567;SDS011;6349;50.904;6.136;2022-11-28T08:30:14;2.90;;;2.23;;
12567;SDS011;6349;50.904;6.136;2022-11-28T08:32:14;2.90;;;2.30;;
12567;SDS011;6349;50.904;6.136;2022-11-28T08:34:15;2.67;;;2.13;;
12567;SDS011;6349;50.904;6.136;2022-11-28T08:36:16;2.30;;;2.10;;
12567;SDS011;6349;50.904;6.136;2022-11-28T08:38:18;4.07;;;2.30;;
12567;SDS011;6349;50.904;6.136;2022-11-28T08:40:18;2.40;;;2.20;;
12567;SDS011;6349;50.904;6.136;2022-11-28T08:42:19;2.60;;;2.40;;
12567;SDS011;6349;50.904;6.136;2022-11-28T08:44:20;3.63;;;2.27;;
12567;SDS011;6349;50.904;6.136;2022-11-28T08:46:21;2.63;;;2.37;;
12567;SDS011;6349;50.904;6.136;2022-11-28T08:48:22;2.83;;;2.50;;
12567;SDS011;6349;50.904;6.136;2022-11-28T08:50:23;3.37;;;2.60;;
12567;SDS011;6349;50.904;6.136;2022-11-28T08:52:23;2.70;;;2.50;;
12567;SDS011;6349;50.904;6.136;2022-11-28T08:54:24;2.60;;;2.40;;
12567;SDS011;6349;50.904;6.136;2022-11-28T08:56:25;2.60;;;2.33;;
12567;SDS011;6349;50.904;6.136;2022-11-28T08:58:26;2.60;;;2.40;;
12567;SDS011;6349;50.904;6.136;2022-11-28T09:00:27;2.83;;;2.50;;
12567;SDS011;6349;50.904;6.136;2022-11-28T09:02:27;2.63;;;2.43;;
12567;SDS011;6349;50.904;6.136;2022-11-28T09:04:28;2.53;;;2.33;;
12567;SDS011;6349;50.904;6.136;2022-11-28T09:06:28;3.27;;;2.57;;
12567;SDS011;6349;50.904;6.136;2022-11-28T09:08:29;3.03;;;2.40;;
12567;SDS011;6349;50.904;6.136;2022-11-28T09:10:29;2.30;;;2.10;;
12567;SDS011;6349;50.904;6.136;2022-11-28T09:12:30;2.50;;;2.10;;
12567;SDS011;6349;50.904;6.136;2022-11-28T09:14:30;2.50;;;2.30;;
12567;SDS011;6349;50.904;6.136;2022-11-28T09:16:31;2.37;;;2.17;;
12567;SDS011;6349;50.904;6.136;2022-11-28T09:18:32;2.97;;;2.50;;
12567;SDS011;6349;50.904;6.136;2022-11-28T09:20:33;2.40;;;2.20;;
12567;SDS011;6349;50.904;6.136;2022-11-28T09:22:33;2.57;;;2.20;;
12567;SDS011;6349;50.904;6.136;2022-11-28T09:24:34;2.40;;;2.20;;
12567;SDS011;6349;50.904;6.136;2022-11-28T09:26:35;2.10;;;1.90;;
12567;SDS011;6349;50.904;6.136;2022-11-28T09:28:35;2.50;;;2.30;;
12567;SDS011;6349;50.904;6.136;2022-11-28T09:30:36;1.80;;;1.70;;
12567;SDS011;6349;50.904;6.136;2022-11-28T09:32:37;1.80;;;1.70;;
12567;SDS011;6349;50.904;6.136;2022-11-28T09:34:40;1.87;;;1.70;;
12567;SDS011;6349;50.904;6.136;2022-11-28T09:57:58;1.40;;;1.30;;
12567;SDS011;6349;50.904;6.136;2022-11-28T10:04:12;2.00;;;1.80;;
12567;SDS011;6349;50.904;6.136;2022-11-28T10:06:25;1.60;;;1.50;;
12567;SDS011;6349;50.904;6.136;2022-11-28T10:08:41;1.80;;;1.70;;
12567;SDS011;6349;50.904;6.136;2022-11-28T10:10:57;2.00;;;1.80;;
12567;SDS011;6349;50.904;6.136;2022-11-28T10:13:26;3.00;;;1.73;;
12567;SDS011;6349;50.904;6.136;2022-11-28T10:15:40;1.80;;;1.70;;
12567;SDS011;6349;50.904;6.136;2022-11-28T10:17:56;1.80;;;1.70;;
12567;SDS011;6349;50.904;6.136;2022-11-28T10:20:21;1.90;;;1.80;;
12567;SDS011;6349;50.904;6.136;2022-11-28T10:31:33;1.50;;;1.40;;
12567;SDS011;6349;50.904;6.136;2022-11-28T10:33:45;1.50;;;1.40;;
12567;SDS011;6349;50.904;6.136;2022-11-28T10:35:54;1.47;;;1.37;;
12567;SDS011;6349;50.904;6.136;2022-11-28T10:37:57;1.40;;;1.30;;
12567;SDS011;6349;50.904;6.136;2022-11-28T10:40:04;1.50;;;1.40;;
12567;SDS011;6349;50.904;6.136;2022-11-28T10:42:20;1.50;;;1.40;;
12567;SDS011;6349;50.904;6.136;2022-11-28T10:44:37;1.57;;;1.47;;
12567;SDS011;6349;50.904;6.136;2022-11-28T10:47:05;1.33;;;1.23;;
12567;SDS011;6349;50.904;6.136;2022-11-28T10:49:31;2.20;;;1.33;;
12567;SDS011;6349;50.904;6.136;2022-11-28T10:54:22;2.27;;;1.30;;
12567;SDS011;6349;50.904;6.136;2022-11-28T10:56:43;1.47;;;1.30;;
12567;SDS011;6349;50.904;6.136;2022-11-28T11:01:39;1.00;;;1.00;;
12567;SDS011;6349;50.904;6.136;2022-11-28T11:03:40;1.30;;;1.20;;
12567;SDS011;6349;50.904;6.136;2022-11-28T11:05:41;1.83;;;1.30;;
12567;SDS011;6349;50.904;6.136;2022-11-28T11:07:43;1.50;;;1.20;;
12567;SDS011;6349;50.904;6.136;2022-11-28T11:09:48;1.40;;;1.30;;
12567;SDS011;6349;50.904;6.136;2022-11-28T11:11:52;1.50;;;1.40;;
12567;SDS011;6349;50.904;6.136;2022-11-28T11:14:00;1.37;;;1.27;;
12567;SDS011;6349;50.904;6.136;2022-11-28T11:16:04;1.77;;;1.67;;
12567;SDS011;6349;50.904;6.136;2022-11-28T11:20:33;1.40;;;1.30;;
12567;SDS011;6349;50.904;6.136;2022-11-28T11:22:36;1.70;;;1.40;;
12567;SDS011;6349;50.904;6.136;2022-11-28T11:24:37;1.47;;;1.10;;
12567;SDS011;6349;50.904;6.136;2022-11-28T11:26:40;0.90;;;0.80;;
12567;SDS011;6349;50.904;6.136;2022-11-28T11:29:40;1.20;;;1.10;;
12567;SDS011;6349;50.904;6.136;2022-11-28T11:31:41;1.47;;;1.07;;
12567;SDS011;6349;50.904;6.136;2022-11-28T11:33:43;1.20;;;1.10;;
12567;SDS011;6349;50.904;6.136;2022-11-28T11:35:55;1.20;;;1.10;;
12567;SDS011;6349;50.904;6.136;2022-11-28T11:38:32;1.27;;;1.10;;
12567;SDS011;6349;50.904;6.136;2022-11-28T11:40:30;0.90;;;0.90;;
12567;SDS011;6349;50.904;6.136;2022-11-28T11:42:31;2.90;;;1.10;;
12567;SDS011;6349;50.904;6.136;2022-11-28T11:44:32;1.20;;;1.10;;
12567;SDS011;6349;50.904;6.136;2022-11-28T11:46:49;1.43;;;1.10;;
12567;SDS011;6349;50.904;6.136;2022-11-28T11:49:02;1.30;;;1.10;;
12567;SDS011;6349;50.904;6.136;2022-11-28T11:51:22;1.30;;;0.93;;
12567;SDS011;6349;50.904;6.136;2022-11-28T11:53:26;1.23;;;1.13;;
12567;SDS011;6349;50.904;6.136;2022-11-28T11:55:27;1.00;;;1.00;;
12567;SDS011;6349;50.904;6.136;2022-11-28T11:57:34;2.87;;;1.33;;
12567;SDS011;6349;50.904;6.136;2022-11-28T12:03:39;2.37;;;1.40;;
12567;SDS011;6349;50.904;6.136;2022-11-28T12:06:03;1.40;;;1.30;;
12567;SDS011;6349;50.904;6.136;2022-11-28T12:08:48;2.90;;;1.23;;
12567;SDS011;6349;50.904;6.136;2022-11-28T12:10:52;1.77;;;1.43;;
12567;SDS011;6349;50.904;6.136;2022-11-28T12:21:49;1.77;;;1.67;;
12567;SDS011;6349;50.904;6.136;2022-11-28T12:23:57;2.30;;;1.47;;
12567;SDS011;6349;50.904;6.136;2022-11-28T12:30:57;1.50;;;1.40;;
12567;SDS011;6349;50.904;6.136;2022-11-28T12:36:03;2.30;;;1.57;;
12567;SDS011;6349;50.904;6.136;2022-11-28T12:41:13;1.50;;;1.40;;
12567;SDS011;6349;50.904;6.136;2022-11-28T12:43:32;1.77;;;1.67;;
12567;SDS011;6349;50.904;6.136;2022-11-28T12:48:52;1.90;;;1.57;;
12567;SDS011;6349;50.904;6.136;2022-11-28T12:59:26;1.83;;;1.73;;
12567;SDS011;6349;50.904;6.136;2022-11-28T13:05:15;4.37;;;2.07;;
12567;SDS011;6349;50.904;6.136;2022-11-28T13:09:59;3.77;;;2.03;;
12567;SDS011;6349;50.904;6.136;2022-11-28T13:15:02;3.37;;;2.13;;
12567;SDS011;6349;50.904;6.136;2022-11-28T13:16:56;2.80;;;2.17;;
12567;SDS011;6349;50.904;6.136;2022-11-28T13:19:10;2.33;;;2.13;;
12567;SDS011;6349;50.904;6.136;2022-11-28T13:23:50;4.00;;;2.70;;
12567;SDS011;6349;50.904;6.136;2022-11-28T13:28:41;3.67;;;2.77;;
12567;SDS011;6349;50.904;6.136;2022-11-28T13:30:51;3.30;;;2.73;;
12567;SDS011;6349;50.904;6.136;2022-11-28T13:32:59;3.70;;;2.73;;
12567;SDS011;6349;50.904;6.136;2022-11-28T13:35:20;3.47;;;2.80;;
12567;SDS011;6349;50.904;6.136;2022-11-28T13:37:55;4.03;;;2.60;;
12567;SDS011;6349;50.904;6.136;2022-11-28T13:39:49;3.87;;;2.87;;
12567;SDS011;6349;50.904;6.136;2022-11-28T13:42:15;3.63;;;2.87;;
12567;SDS011;6349;50.904;6.136;2022-11-28T13:44:46;4.30;;;3.10;;
12567;SDS011;6349;50.904;6.136;2022-11-28T13:47:22;4.33;;;2.90;;
12567;SDS011;6349;50.904;6.136;2022-11-28T13:49:27;4.87;;;2.90;;
12567;SDS011;6349;50.904;6.136;2022-11-28T13:51:29;4.00;;;3.07;;
12567;SDS011;6349;50.904;6.136;2022-11-28T13:53:30;3.43;;;2.83;;
12567;SDS011;6349;50.904;6.136;2022-11-28T13:58:14;3.83;;;2.80;;
12567;SDS011;6349;50.904;6.136;2022-11-28T14:00:35;3.27;;;2.97;;
12567;SDS011;6349;50.904;6.136;2022-11-28T14:04:51;3.23;;;2.93;;
12567;SDS011;6349;50.904;6.136;2022-11-28T14:06:52;3.93;;;3.10;;
12567;SDS011;6349;50.904;6.136;2022-11-28T14:09:03;3.40;;;2.90;;
12567;SDS011;6349;50.904;6.136;2022-11-28T14:14:41;3.13;;;2.83;;
12567;SDS011;6349;50.904;6.136;2022-11-28T14:17:11;3.77;;;3.37;;
12567;SDS011;6349;50.904;6.136;2022-11-28T14:25:16;4.47;;;2.90;;
12567;SDS011;6349;50.904;6.136;2022-11-28T14:27:29;4.60;;;3.43;;
12567;SDS011;6349;50.904;6.136;2022-11-28T14:29:34;5.03;;;3.03;;
12567;SDS011;6349;50.904;6.136;2022-11-28T14:31:38;4.43;;;3.53;;
12567;SDS011;6349;50.904;6.136;2022-11-28T14:33:40;4.70;;;3.27;;
12567;SDS011;6349;50.904;6.136;2022-11-28T14:38:34;6.03;;;3.20;;
12567;SDS011;6349;50.904;6.136;2022-11-28T14:43:41;4.93;;;3.80;;
12567;SDS011;6349;50.904;6.136;2022-11-28T14:45:43;5.03;;;3.70;;
12567;SDS011;6349;50.904;6.136;2022-11-28T14:48:05;4.37;;;3.23;;
12567;SDS011;6349;50.904;6.136;2022-11-28T14:52:21;4.20;;;3.80;;
12567;SDS011;6349;50.904;6.136;2022-11-28T14:54:31;4.43;;;3.43;;
12567;SDS011;6349;50.904;6.136;2022-11-28T14:56:35;4.20;;;3.33;;
12567;SDS011;6349;50.904;6.136;2022-11-28T14:58:36;5.27;;;3.60;;
12567;SDS011;6349;50.904;6.136;2022-11-28T15:00:52;4.07;;;3.43;;
12567;SDS011;6349;50.904;6.136;2022-11-28T15:03:03;3.60;;;3.20;;
12567;SDS011;6349;50.904;6.136;2022-11-28T15:05:27;4.17;;;3.47;;
12567;SDS011;6349;50.904;6.136;2022-11-28T15:16:23;4.40;;;3.50;;
12567;SDS011;6349;50.904;6.136;2022-11-28T15:18:29;3.80;;;3.13;;